createdAt,value
2023-05-14T00:02:07.799Z,97018.66
2023-05-14T00:04:35.546Z,97008.56
2023-05-14T00:07:04.470Z,97006.72
2023-05-14T00:09:32.803Z,97007.38
2023-05-14T00:12:00.321Z,97004.91
2023-05-14T00:14:27.803Z,97000.00
2023-05-14T00:16:55.356Z,96990.75
2023-05-14T00:19:22.912Z,97001.66
2023-05-14T00:21:50.523Z,96989.09
2023-05-14T00:24:19.396Z,96972.69
2023-05-14T00:26:46.912Z,96985.91
2023-05-14T00:29:14.399Z,96992.84
2023-05-14T00:31:42.447Z,96984.34
2023-05-14T00:34:10.046Z,96992.78
2023-05-14T00:36:37.897Z,96985.22
2023-05-14T00:39:05.481Z,96988.84
2023-05-14T00:41:34.353Z,96981.72
2023-05-14T00:44:01.887Z,96963.31
2023-05-14T00:46:29.656Z,96972.22
2023-05-14T00:48:57.232Z,96980.00
2023-05-14T00:51:24.781Z,96981.88
2023-05-14T00:53:52.926Z,96986.16
2023-05-14T00:56:21.324Z,96984.88
2023-05-14T00:58:50.213Z,96983.69
2023-05-14T01:01:18.113Z,96982.53
2023-05-14T01:03:46.037Z,96992.25
2023-05-14T01:06:16.997Z,96986.16
2023-05-14T01:08:51.808Z,96985.78
2023-05-14T01:11:22.563Z,96984.97
2023-05-14T01:13:59.844Z,96979.16
2023-05-14T01:16:28.835Z,96971.78
2023-05-14T01:18:57.822Z,96972.44
2023-05-14T01:21:35.197Z,96980.78
2023-05-14T01:24:03.099Z,96973.72
2023-05-14T01:26:31.396Z,96977.66
2023-05-14T01:29:02.821Z,96974.00
2023-05-14T01:31:32.624Z,96974.34
2023-05-14T01:34:00.588Z,96977.47
2023-05-14T01:36:30.951Z,96975.31
2023-05-14T01:38:58.662Z,96972.66
2023-05-14T01:41:27.243Z,96972.19
2023-05-14T01:43:54.877Z,96968.44
2023-05-14T01:46:24.172Z,96965.81
2023-05-14T01:48:51.883Z,96963.88
2023-05-14T01:51:19.382Z,96965.22
2023-05-14T01:53:48.218Z,96968.22
2023-05-14T01:56:15.752Z,96958.34
2023-05-14T01:58:43.275Z,96962.34
2023-05-14T02:01:10.813Z,96956.22
2023-05-14T02:03:38.376Z,96948.34
2023-05-14T02:06:06.146Z,96952.81
2023-05-14T02:08:33.615Z,96962.53
2023-05-14T02:11:02.465Z,96956.41
2023-05-14T02:13:29.982Z,96959.69
2023-05-14T02:15:57.570Z,96957.22
2023-05-14T02:18:25.290Z,96938.06
2023-05-14T02:20:52.809Z,96951.03
2023-05-14T02:23:25.643Z,96954.47
2023-05-14T02:25:58.748Z,96949.53
2023-05-14T02:28:27.571Z,96944.56
2023-05-14T02:30:59.651Z,96949.81
2023-05-14T02:33:27.223Z,96947.69
2023-05-14T02:35:54.865Z,96955.63
2023-05-14T02:38:22.424Z,96956.59
2023-05-14T02:40:49.991Z,96950.97
2023-05-14T02:43:17.604Z,96947.47
2023-05-14T02:45:46.423Z,96951.13
2023-05-14T02:48:14.152Z,96946.97
2023-05-14T02:50:41.692Z,96940.69
2023-05-14T02:53:09.210Z,96943.97
2023-05-14T02:55:37.352Z,96944.78
2023-05-14T02:58:04.864Z,96936.34
2023-05-14T03:00:32.421Z,96933.88
2023-05-14T03:03:01.697Z,96937.06
2023-05-14T03:05:29.807Z,96931.13
2023-05-14T03:07:57.352Z,96926.91
2023-05-14T03:10:25.208Z,96923.59
2023-05-14T03:12:52.892Z,96921.78
2023-05-14T03:15:20.651Z,96924.66
2023-05-14T03:17:48.167Z,96917.44
2023-05-14T03:20:17.215Z,96921.41
2023-05-14T03:22:44.799Z,96922.06
2023-05-14T03:25:12.352Z,96922.41
2023-05-14T03:27:39.839Z,96910.63
2023-05-14T03:30:08.649Z,96923.06
2023-05-14T03:32:37.405Z,96918.44
2023-05-14T03:35:05.522Z,96922.91
2023-05-14T03:37:34.449Z,96920.59
2023-05-14T03:40:01.987Z,96918.19
2023-05-14T03:42:29.556Z,96923.16
2023-05-14T03:44:57.033Z,96902.81
2023-05-14T03:47:24.606Z,96906.44
2023-05-14T03:49:52.237Z,96921.22
2023-05-14T03:52:19.898Z,96921.41
2023-05-14T03:54:49.019Z,96925.69
2023-05-14T03:57:16.520Z,96922.41
2023-05-14T03:59:44.016Z,96930.31
2023-05-14T04:02:11.568Z,96922.75
2023-05-14T04:04:39.132Z,96922.59
2023-05-14T04:07:06.835Z,96917.19
2023-05-14T04:09:34.367Z,96921.66
2023-05-14T04:12:03.381Z,96928.25
2023-05-14T04:14:30.854Z,96935.00
2023-05-14T04:17:00.173Z,96906.84
2023-05-14T04:19:27.911Z,96923.63
2023-05-14T04:21:55.441Z,96928.38
2023-05-14T04:24:22.977Z,96920.63
2023-05-14T04:26:50.465Z,96918.34
2023-05-14T04:29:19.329Z,96918.28
2023-05-14T04:31:47.051Z,96912.53
2023-05-14T04:34:14.584Z,96919.25
2023-05-14T04:36:42.170Z,96893.56
2023-05-14T04:39:12.264Z,96907.97
2023-05-14T04:41:39.932Z,96898.94
2023-05-14T04:44:08.092Z,96911.34
2023-05-14T04:46:37.250Z,96911.47
2023-05-14T04:49:05.103Z,96910.25
2023-05-14T04:51:32.609Z,96894.88
2023-05-14T04:54:00.236Z,96909.78
2023-05-14T04:56:28.119Z,96902.91
2023-05-14T04:58:55.699Z,96895.47
2023-05-14T05:01:23.489Z,96906.16
2023-05-14T05:03:52.524Z,96902.09
2023-05-14T05:06:20.279Z,96878.59
2023-05-14T05:08:47.828Z,96901.41
2023-05-14T05:11:15.341Z,96899.41
2023-05-14T05:13:42.883Z,96901.53
2023-05-14T05:16:10.470Z,96901.13
2023-05-14T05:18:39.095Z,96897.19
2023-05-14T05:21:08.096Z,96901.81
2023-05-14T05:23:35.978Z,96893.59
2023-05-14T05:26:03.620Z,96906.84
2023-05-14T05:28:31.197Z,96912.84
2023-05-14T05:30:58.748Z,96900.09
2023-05-14T05:33:26.437Z,96893.94
2023-05-14T05:35:53.925Z,96898.13
2023-05-14T05:38:22.745Z,96895.81
2023-05-14T05:40:50.338Z,96888.97
2023-05-14T05:43:17.991Z,96894.56
2023-05-14T05:45:46.466Z,96887.00
2023-05-14T05:48:13.953Z,96893.50
2023-05-14T05:50:41.661Z,96887.72
2023-05-14T05:53:09.120Z,96887.81
2023-05-14T05:55:37.983Z,96889.47
2023-05-14T05:58:05.717Z,96883.34
2023-05-14T06:00:33.338Z,96892.16
2023-05-14T06:03:01.055Z,96886.91
2023-05-14T06:05:28.718Z,96889.34
2023-05-14T06:07:56.243Z,96887.91
2023-05-14T06:10:24.450Z,96890.16
2023-05-14T06:12:53.524Z,96897.75
2023-05-14T06:15:21.785Z,96892.09
2023-05-14T06:17:49.373Z,96897.38
2023-05-14T06:20:17.158Z,96876.13
2023-05-14T06:22:44.757Z,96894.56
2023-05-14T06:25:12.571Z,96895.75
2023-05-14T06:27:40.059Z,96886.25
2023-05-14T06:30:10.406Z,96889.13
2023-05-14T06:32:37.978Z,96891.41
2023-05-14T06:35:06.214Z,96884.88
2023-05-14T06:37:33.892Z,96879.13
2023-05-14T06:40:01.654Z,96880.75
2023-05-14T06:42:29.176Z,96881.16
2023-05-14T06:44:56.713Z,96876.03
2023-05-14T06:47:26.840Z,96875.84
2023-05-14T06:49:55.719Z,96879.13
2023-05-14T06:52:23.229Z,96876.25
2023-05-14T06:54:50.720Z,96879.53
2023-05-14T06:57:18.236Z,96874.41
2023-05-14T06:59:45.757Z,96871.69
2023-05-14T07:02:13.660Z,96878.22
2023-05-14T07:04:42.617Z,96869.47
2023-05-14T07:07:15.325Z,96874.59
2023-05-14T07:09:43.054Z,96879.25
2023-05-14T07:12:10.629Z,96876.59
2023-05-14T07:14:38.316Z,96880.44
2023-05-14T07:17:05.925Z,96879.13
2023-05-14T07:19:33.439Z,96880.88
2023-05-14T07:22:02.289Z,96873.09
2023-05-14T07:24:29.796Z,96877.75
2023-05-14T07:26:58.107Z,96880.34
2023-05-14T07:29:26.094Z,96882.25
2023-05-14T07:31:53.660Z,96878.53
2023-05-14T07:34:21.243Z,96865.13
2023-05-14T07:36:48.847Z,96871.22
2023-05-14T07:39:17.731Z,96867.25
2023-05-14T07:41:45.274Z,96862.19
2023-05-14T07:44:13.031Z,96858.19
2023-05-14T07:46:40.987Z,96857.59
2023-05-14T07:49:08.495Z,96865.72
2023-05-14T07:51:36.012Z,96851.47
2023-05-14T07:54:03.526Z,96858.72
2023-05-14T07:56:32.465Z,96861.28
2023-05-14T07:58:59.975Z,96858.53
2023-05-14T08:01:27.625Z,96850.03
2023-05-14T08:03:55.176Z,96838.38
2023-05-14T08:06:23.689Z,96846.91
2023-05-14T08:08:51.211Z,96844.47
2023-05-14T08:11:18.876Z,96846.41
2023-05-14T08:13:47.757Z,96848.03
2023-05-14T08:16:15.322Z,96839.59
2023-05-14T08:18:43.625Z,96828.75
2023-05-14T08:21:11.150Z,96836.75
2023-05-14T08:23:38.665Z,96826.38
2023-05-14T08:26:06.629Z,96827.31
2023-05-14T08:28:34.141Z,96827.38
2023-05-14T08:31:03.048Z,96828.31
2023-05-14T08:33:30.621Z,96815.00
2023-05-14T08:36:00.417Z,96803.78
2023-05-14T08:38:27.983Z,96805.63
2023-05-14T08:40:58.506Z,96804.78
2023-05-14T08:43:27.725Z,96804.13
2023-05-14T08:45:59.468Z,96793.59
2023-05-14T08:48:30.628Z,96797.78
2023-05-14T08:50:58.747Z,96791.97
2023-05-14T08:53:26.439Z,96798.88
2023-05-14T08:55:54.881Z,96792.16
2023-05-14T08:58:22.414Z,96805.69
2023-05-14T09:00:50.089Z,96798.19
2023-05-14T09:03:18.413Z,96798.78
2023-05-14T09:05:48.688Z,96787.47
2023-05-14T09:08:16.280Z,96788.88
2023-05-14T09:10:43.864Z,96788.06
2023-05-14T09:13:11.467Z,96784.56
2023-05-14T09:15:41.318Z,96785.81
2023-05-14T09:18:09.011Z,96784.78
2023-05-14T09:20:36.779Z,96780.84
2023-05-14T09:23:05.924Z,96783.31
2023-05-14T09:25:33.791Z,96776.44
2023-05-14T09:28:01.344Z,96779.09
2023-05-14T09:30:28.900Z,96783.69
2023-05-14T09:32:56.545Z,96778.69
2023-05-14T09:35:25.458Z,96775.47
2023-05-14T09:37:54.297Z,96773.09
2023-05-14T09:40:25.118Z,96771.09
2023-05-14T09:42:52.971Z,96779.66
2023-05-14T09:45:20.552Z,96769.97
2023-05-14T09:47:48.239Z,96764.84
2023-05-14T09:50:16.043Z,96772.69
2023-05-14T09:52:43.595Z,96764.06
2023-05-14T09:55:11.171Z,96757.44
2023-05-14T09:57:40.699Z,96757.13
2023-05-14T10:00:10.255Z,96763.56
2023-05-14T10:02:40.568Z,96754.84
2023-05-14T10:05:09.360Z,96758.97
2023-05-14T10:07:41.757Z,96755.97
2023-05-14T10:10:13.297Z,96755.41
2023-05-14T10:12:42.445Z,96747.97
2023-05-14T10:15:14.825Z,96728.97
2023-05-14T10:17:45.728Z,96726.34
2023-05-14T10:20:16.519Z,96738.75
2023-05-14T10:22:44.114Z,96738.38
2023-05-14T10:25:12.292Z,96728.41
2023-05-14T10:27:41.811Z,96712.91
2023-05-14T10:30:12.932Z,96738.00
2023-05-14T10:32:41.922Z,96729.78
2023-05-14T10:35:20.622Z,96728.78
2023-05-14T10:37:48.375Z,96723.41
2023-05-14T10:40:15.999Z,96726.84
2023-05-14T10:42:45.216Z,96714.69
2023-05-14T10:45:14.219Z,96721.06
2023-05-14T10:47:44.067Z,96723.94
2023-05-14T10:50:13.482Z,96707.00
2023-05-14T10:52:43.316Z,96703.38
2023-05-14T10:55:14.072Z,96709.09
2023-05-14T10:57:43.906Z,96691.34
2023-05-14T11:00:14.944Z,96699.38
2023-05-14T11:02:44.544Z,96707.78
2023-05-14T11:05:15.617Z,96695.53
2023-05-14T11:07:44.914Z,96684.97
2023-05-14T11:10:13.606Z,96699.63
2023-05-14T11:12:42.636Z,96697.81
2023-05-14T11:15:11.538Z,96689.88
2023-05-14T11:17:42.426Z,96672.34
2023-05-14T11:20:11.397Z,96691.34
2023-05-14T11:22:40.354Z,96689.41
2023-05-14T11:25:09.461Z,96694.31
2023-05-14T11:27:38.554Z,96686.31
2023-05-14T11:30:12.860Z,96667.28
2023-05-14T11:32:41.957Z,96661.63
2023-05-14T11:35:10.138Z,96682.41
2023-05-14T11:37:37.692Z,96688.41
2023-05-14T11:40:10.772Z,96673.13
2023-05-14T11:42:38.339Z,96676.53
2023-05-14T11:45:07.092Z,96677.88
2023-05-14T11:47:34.645Z,96673.59
2023-05-14T11:50:03.491Z,96670.16
2023-05-14T11:52:31.176Z,96670.63
2023-05-14T11:54:58.712Z,96666.91
2023-05-14T11:57:26.831Z,96664.13
2023-05-14T11:59:57.577Z,96660.06
2023-05-14T12:02:29.007Z,96661.34
2023-05-14T12:04:56.631Z,96655.00
2023-05-14T12:07:29.996Z,96656.28
2023-05-14T12:10:01.995Z,96657.84
2023-05-14T12:12:36.224Z,96655.91
2023-05-14T12:15:03.967Z,96636.31
2023-05-14T12:17:31.560Z,96647.00
2023-05-14T12:19:59.319Z,96627.56
2023-05-14T12:22:30.611Z,96640.16
2023-05-14T12:24:59.033Z,96639.75
2023-05-14T12:27:27.567Z,96630.13
2023-05-14T12:30:09.114Z,96629.34
2023-05-14T12:32:48.933Z,96628.47
2023-05-14T12:35:16.631Z,96627.75
2023-05-14T12:37:45.510Z,96634.94
2023-05-14T12:40:13.545Z,96625.88
2023-05-14T12:42:41.106Z,96625.78
2023-05-14T12:45:09.197Z,96618.00
2023-05-14T12:47:37.382Z,96622.69
2023-05-14T12:50:05.798Z,96618.78
2023-05-14T12:52:38.752Z,96601.72
2023-05-14T12:55:10.030Z,96615.84
2023-05-14T12:57:38.836Z,96614.84
2023-05-14T13:00:08.501Z,96611.06
2023-05-14T13:02:42.349Z,96611.47
2023-05-14T13:05:11.292Z,96609.06
2023-05-14T13:07:39.006Z,96609.28
2023-05-14T13:10:09.293Z,96610.22
2023-05-14T13:12:36.854Z,96606.66
2023-05-14T13:15:04.752Z,96599.00
2023-05-14T13:17:32.641Z,96604.53
2023-05-14T13:20:00.218Z,96597.94
2023-05-14T13:22:27.915Z,96602.25
2023-05-14T13:24:55.402Z,96605.56
2023-05-14T13:27:24.297Z,96600.38
2023-05-14T13:29:52.009Z,96597.63
2023-05-14T13:32:19.529Z,96595.81
2023-05-14T13:34:47.257Z,96597.16
2023-05-14T13:37:14.896Z,96594.66
2023-05-14T13:39:42.431Z,96597.50
2023-05-14T13:42:09.989Z,96591.00
2023-05-14T13:44:39.131Z,96588.47
2023-05-14T13:47:07.164Z,96589.78
2023-05-14T13:49:34.700Z,96585.16
2023-05-14T13:52:02.223Z,96587.59
2023-05-14T13:54:29.756Z,96585.22
2023-05-14T13:56:57.309Z,96579.81
2023-05-14T13:59:24.874Z,96580.97
2023-05-14T14:01:53.764Z,96576.78
2023-05-14T14:04:22.123Z,96582.81
2023-05-14T14:06:49.923Z,96584.34
2023-05-14T14:09:17.517Z,96585.59
2023-05-14T14:11:45.069Z,96589.72
2023-05-14T14:14:13.492Z,96598.34
2023-05-14T14:16:41.224Z,96597.25
2023-05-14T14:19:10.294Z,96592.91
2023-05-14T14:21:39.671Z,96599.47
2023-05-14T14:24:07.626Z,96599.19
2023-05-14T14:26:35.156Z,96597.19
2023-05-14T14:29:02.671Z,96596.81
2023-05-14T14:31:30.201Z,96597.97
2023-05-14T14:33:57.760Z,96599.19
2023-05-14T14:36:26.679Z,96588.50
2023-05-14T14:38:54.241Z,96583.19
2023-05-14T14:41:22.326Z,96594.41
2023-05-14T14:43:50.227Z,96587.06
2023-05-14T14:46:17.841Z,96602.88
2023-05-14T14:48:45.812Z,96595.28
2023-05-14T14:51:13.369Z,96603.91
2023-05-14T14:53:42.344Z,96596.66
2023-05-14T14:56:09.930Z,96600.28
2023-05-14T14:58:37.480Z,96605.25
2023-05-14T15:01:05.333Z,96601.56
2023-05-14T15:03:33.023Z,96610.06
2023-05-14T15:06:00.703Z,96611.97
2023-05-14T15:08:29.065Z,96610.56
2023-05-14T15:10:59.253Z,96606.47
2023-05-14T15:13:27.026Z,96607.38
2023-05-14T15:15:54.665Z,96608.94
2023-05-14T15:18:22.161Z,96608.91
2023-05-14T15:20:50.018Z,96611.00
2023-05-14T15:23:17.630Z,96618.50
2023-05-14T15:25:45.436Z,96619.66
2023-05-14T15:28:14.320Z,96621.63
2023-05-14T15:30:41.849Z,96622.31
2023-05-14T15:33:09.521Z,96633.63
2023-05-14T15:35:37.513Z,96633.78
2023-05-14T15:38:05.174Z,96630.91
2023-05-14T15:40:34.850Z,96632.75
2023-05-14T15:43:02.787Z,96603.53
2023-05-14T15:45:31.614Z,96618.41
2023-05-14T15:47:59.192Z,96622.38
2023-05-14T15:50:27.340Z,96629.56
2023-05-14T15:52:54.997Z,96629.81
2023-05-14T15:55:22.695Z,96611.31
2023-05-14T15:57:50.214Z,96625.47
2023-05-14T16:00:18.610Z,96623.16
2023-05-14T16:02:47.632Z,96623.97
2023-05-14T16:05:15.524Z,96614.78
2023-05-14T16:07:43.326Z,96618.63
2023-05-14T16:10:11.664Z,96618.47
2023-05-14T16:12:39.183Z,96619.59
2023-05-14T16:15:08.396Z,96613.16
2023-05-14T16:17:36.378Z,96614.88
2023-05-14T16:20:06.142Z,96606.13
2023-05-14T16:22:34.703Z,96608.75
2023-05-14T16:25:03.507Z,96600.75
2023-05-14T16:27:31.530Z,96610.34
2023-05-14T16:29:59.117Z,96598.59
2023-05-14T16:32:26.700Z,96600.66
2023-05-14T16:34:56.445Z,96590.88
2023-05-14T16:37:25.864Z,96589.84
2023-05-14T16:39:53.451Z,96599.47
2023-05-14T16:42:21.294Z,96589.25
2023-05-14T16:44:48.838Z,96600.28
2023-05-14T16:47:16.432Z,96590.56
2023-05-14T16:49:44.299Z,96582.69
2023-05-14T16:52:11.840Z,96590.09
2023-05-14T16:54:40.653Z,96594.09
2023-05-14T16:57:08.189Z,96592.28
2023-05-14T16:59:36.070Z,96593.91
2023-05-14T17:02:03.708Z,96588.22
2023-05-14T17:04:33.260Z,96592.44
2023-05-14T17:07:01.503Z,96595.00
2023-05-14T17:09:29.072Z,96586.00
2023-05-14T17:11:57.983Z,96594.22
2023-05-14T17:14:25.664Z,96601.59
2023-05-14T17:16:53.228Z,96604.06
2023-05-14T17:19:20.761Z,96609.34
2023-05-14T17:21:48.293Z,96593.69
2023-05-14T17:24:16.367Z,96595.75
2023-05-14T17:26:43.925Z,96597.03
2023-05-14T17:29:12.926Z,96591.06
2023-05-14T17:31:40.508Z,96596.00
2023-05-14T17:34:08.103Z,96569.47
2023-05-14T17:36:35.607Z,96586.16
2023-05-14T17:39:03.156Z,96595.91
2023-05-14T17:41:30.814Z,96599.56
2023-05-14T17:43:58.653Z,96605.31
2023-05-14T17:46:27.558Z,96596.56
2023-05-14T17:48:55.092Z,96590.34
2023-05-14T17:51:22.651Z,96597.88
2023-05-14T17:53:50.819Z,96599.34
2023-05-14T17:56:18.575Z,96598.81
2023-05-14T17:58:46.436Z,96602.09
2023-05-14T18:01:14.056Z,96600.06
2023-05-14T18:03:43.373Z,96594.75
2023-05-14T18:06:11.061Z,96591.91
2023-05-14T18:08:38.611Z,96592.75
2023-05-14T18:11:06.168Z,96584.97
2023-05-14T18:13:33.922Z,96593.16
2023-05-14T18:16:01.599Z,96562.75
2023-05-14T18:18:29.175Z,96579.69
2023-05-14T18:20:58.101Z,96581.75
2023-05-14T18:23:25.692Z,96589.69
2023-05-14T18:25:53.226Z,96582.34
2023-05-14T18:28:21.417Z,96581.13
2023-05-14T18:30:49.949Z,96578.91
2023-05-14T18:33:17.640Z,96570.31
2023-05-14T18:35:45.325Z,96579.88
2023-05-14T18:38:14.241Z,96591.94
2023-05-14T18:40:41.812Z,96576.63
2023-05-14T18:43:09.608Z,96584.78
2023-05-14T18:45:37.440Z,96559.63
2023-05-14T18:48:06.037Z,96572.25
2023-05-14T18:50:33.788Z,96584.66
2023-05-14T18:53:01.377Z,96579.94
2023-05-14T18:55:30.311Z,96590.06
2023-05-14T18:57:57.976Z,96568.38
2023-05-14T19:00:25.581Z,96580.41
2023-05-14T19:02:53.232Z,96592.44
2023-05-14T19:05:20.954Z,96590.75
2023-05-14T19:07:49.301Z,96594.41
2023-05-14T19:10:16.859Z,96595.03
2023-05-14T19:12:47.136Z,96602.28
2023-05-14T19:15:14.714Z,96600.63
2023-05-14T19:17:42.539Z,96609.78
2023-05-14T19:20:11.814Z,96602.97
2023-05-14T19:22:39.454Z,96588.72
2023-05-14T19:25:08.462Z,96599.53
2023-05-14T19:27:37.745Z,96597.69
2023-05-14T19:30:08.020Z,96602.00
2023-05-14T19:32:37.648Z,96601.09
2023-05-14T19:35:06.051Z,96603.34
2023-05-14T19:37:34.207Z,96600.06
2023-05-14T19:40:01.791Z,96585.16
2023-05-14T19:42:29.378Z,96570.00
2023-05-14T19:44:56.943Z,96604.22
2023-05-14T19:47:25.928Z,96591.09
2023-05-14T19:49:53.543Z,96593.94
2023-05-14T19:52:21.155Z,96594.50
2023-05-14T19:54:48.695Z,96596.13
2023-05-14T19:57:16.248Z,96605.94
2023-05-14T19:59:44.360Z,96600.50
2023-05-14T20:02:18.268Z,96601.31
2023-05-14T20:04:47.464Z,96600.09
2023-05-14T20:07:15.717Z,96600.09
2023-05-14T20:09:43.446Z,96596.38
2023-05-14T20:12:12.834Z,96596.38
2023-05-14T20:14:41.037Z,96594.97
2023-05-14T20:17:08.705Z,96585.72
2023-05-14T20:19:36.301Z,96593.97
2023-05-14T20:22:05.556Z,96590.00
2023-05-14T20:24:33.083Z,96595.56
2023-05-14T20:27:00.611Z,96596.50
2023-05-14T20:29:28.170Z,96594.00
2023-05-14T20:31:55.763Z,96588.09
2023-05-14T20:34:23.334Z,96572.22
2023-05-14T20:36:51.845Z,96562.13
2023-05-14T20:39:21.120Z,96581.88
2023-05-14T20:41:48.696Z,96586.28
2023-05-14T20:44:16.780Z,96580.00
2023-05-14T20:46:45.580Z,96584.84
2023-05-14T20:49:13.666Z,96588.22
2023-05-14T20:51:41.225Z,96591.09
2023-05-14T20:54:08.781Z,96585.34
2023-05-14T20:56:37.704Z,96588.81
2023-05-14T20:59:05.215Z,96580.19
2023-05-14T21:01:32.824Z,96591.75
2023-05-14T21:04:00.523Z,96579.94
2023-05-14T21:06:28.293Z,96579.47
2023-05-14T21:08:55.813Z,96579.59
2023-05-14T21:11:23.946Z,96576.78
2023-05-14T21:13:52.821Z,96576.03
2023-05-14T21:16:20.658Z,96575.47
2023-05-14T21:18:48.345Z,96568.59
2023-05-14T21:21:15.953Z,96573.50
2023-05-14T21:23:43.693Z,96573.72
2023-05-14T21:26:11.407Z,96553.09
2023-05-14T21:28:38.972Z,96570.63
2023-05-14T21:31:07.893Z,96573.84
2023-05-14T21:33:35.479Z,96571.00
2023-05-14T21:36:03.043Z,96574.25
2023-05-14T21:38:31.662Z,96573.72
2023-05-14T21:40:59.524Z,96575.41
2023-05-14T21:43:27.571Z,96572.53
2023-05-14T21:45:55.143Z,96574.28
2023-05-14T21:48:24.160Z,96576.69
2023-05-14T21:50:51.818Z,96573.94
2023-05-14T21:53:19.374Z,96576.84
2023-05-14T21:55:47.207Z,96579.41
2023-05-14T21:58:14.860Z,96576.97
2023-05-14T22:00:42.385Z,96578.00
2023-05-14T22:03:10.057Z,96568.16
2023-05-14T22:05:39.305Z,96574.41
2023-05-14T22:08:07.246Z,96572.56
2023-05-14T22:10:35.663Z,96566.41
2023-05-14T22:13:03.241Z,96563.75
2023-05-14T22:15:30.798Z,96576.97
2023-05-14T22:17:58.396Z,96566.34
2023-05-14T22:20:26.023Z,96564.69
2023-05-14T22:22:54.896Z,96564.78
2023-05-14T22:25:22.927Z,96555.84
2023-05-14T22:27:50.704Z,96562.13
2023-05-14T22:30:18.299Z,96546.91
2023-05-14T22:32:45.952Z,96554.59
2023-05-14T22:35:13.552Z,96549.38
2023-05-14T22:37:41.077Z,96550.63
2023-05-14T22:40:11.039Z,96555.69
2023-05-14T22:42:38.647Z,96553.44
2023-05-14T22:45:08.036Z,96547.78
2023-05-14T22:47:35.613Z,96549.41
2023-05-14T22:50:03.421Z,96556.16
2023-05-14T22:52:30.925Z,96541.53
2023-05-14T22:54:58.515Z,96545.19
2023-05-14T22:57:27.446Z,96543.41
2023-05-14T22:59:55.027Z,96549.16
2023-05-14T23:02:22.574Z,96539.13
2023-05-14T23:04:50.256Z,96531.81
2023-05-14T23:07:17.866Z,96532.44
2023-05-14T23:09:45.530Z,96528.16
2023-05-14T23:12:13.056Z,96524.97
2023-05-14T23:14:42.498Z,96521.88
2023-05-14T23:17:10.103Z,96519.69
2023-05-14T23:19:37.872Z,96512.06
2023-05-14T23:22:05.894Z,96516.19
2023-05-14T23:24:33.406Z,96508.03
2023-05-14T23:27:01.037Z,96509.66
2023-05-14T23:29:28.585Z,96499.47
2023-05-14T23:31:57.605Z,96509.59
2023-05-14T23:34:25.260Z,96502.69
2023-05-14T23:36:52.952Z,96488.03
2023-05-14T23:39:20.868Z,96480.66
2023-05-14T23:41:48.371Z,96484.34
2023-05-14T23:44:16.122Z,96479.38
2023-05-14T23:46:44.825Z,96480.66
2023-05-14T23:49:13.965Z,96476.72
2023-05-14T23:51:41.478Z,96479.59
2023-05-14T23:54:09.060Z,96473.09
2023-05-14T23:56:36.589Z,96473.28
2023-05-14T23:59:04.874Z,96461.72
